Celebrity Infinity — 9HJD9 — position and weather

sailwx.info

Track history (hours):
 
Tides and Currents Weather Stations Pressure Air Temp Water Temp Dewpoint Dewpoint Depression Visibility Wind Speed Wind Dir Waves Ship Positions

Celebrity Infinity

Last reported at 2016-Sep-29 15:33 UTC. Time now 2016-Sep-29 18:49 UTC.
Position N 43°15' W 124°52'.

Length 294 m; draft 8.3 m.

Type: Ship. MMSI: 249048000.

Date/timePositionNaut miles runAvg speedWind from/ knotsBaromVisibWave heightAir tempDewpointWater temp
2016-Sep-29 15:33N 43°15' W 124°52'1616.0
2016-Sep-29 14:33N 43°30' W 124°49'1616.1
2016-Sep-29 13:33N 43°46' W 124°46'7915.9
2016-Sep-29 08:33N 45°05' W 124°30'1616.1
2016-Sep-29 07:33N 45°21' W 124°27'56 8.0
2016-Sep-29 00:32N 46°11' W 123°51'0 0.0
2016-Sep-28 21:33N 46°11' W 123°51'0 0.0
2016-Sep-28 19:33N 46°11' W 123°51'18 6.1
2016-Sep-28 16:33N 46°16' W 124°17'1716.6
2016-Sep-28 15:34N 46°29' W 124°31'5116.8
2016-Sep-28 12:33N 47°15' W 125°04'6616.6
2016-Sep-28 08:33N 48°21' W 125°09'7214.4
2016-Sep-28 03:34N 48°09' W 123°22'1717.2
2016-Sep-28 02:33N 48°12' W 122°56'1818.7
2016-Sep-28 01:33N 47°60' W 122°36'2512.3
2016-Sep-27 23:31N 47°37' W 122°21'0 0.0
2016-Sep-27 19:32N 47°37' W 122°21'0 0.0
2016-Sep-27 14:27N 47°37' W 122°21'0 0.0
2016-Sep-27 13:33N 47°37' W 122°21'16 5.5
2016-Sep-27 10:34N 47°52' W 122°29'49 4.9
2016-Sep-27 00:33N 48°25' W 123°23'0 0.0
2016-Sep-26 20:31N 48°25' W 123°23'0 0.0
2016-Sep-26 19:31N 48°25' W 123°23'0 0.0
2016-Sep-26 15:32N 48°25' W 123°23'4 2.1
2016-Sep-26 13:33N 48°23' W 123°18'15 7.5
2016-Sep-26 11:33N 48°38' W 123°15'18 5.9
2016-Sep-26 08:33N 48°55' W 123°10'30 5.1
2016-Sep-26 02:33N 49°18' W 123°40'8 8.3
2016-Sep-26 01:33N 49°18' W 123°27'9 9.0
2016-Sep-26 00:33N 49°19' W 123°13'5 1.6
2016-Sep-25 21:32N 49°17' W 123°07'0 0.0
2016-Sep-25 17:32N 49°17' W 123°07'0 0.0
2016-Sep-25 16:32N 49°17' W 123°07'0 0.0
2016-Sep-25 15:32N 49°17' W 123°07'0 0.0
2016-Sep-25 14:31N 49°17' W 123°07'7 3.7
2016-Sep-25 12:33N 49°17' W 123°18'1010.0
2016-Sep-25 11:33N 49°14' W 123°32'9 8.6
2016-Sep-25 10:33N 49°07' W 123°26'9 8.5
2016-Sep-25 09:33N 49°01' W 123°16'18 9.2
2016-Sep-25 07:33N 48°44' W 123°08'21 7.0
2016-Sep-25 04:32N 48°25' W 123°23'0 0.0
2016-Sep-25 00:33N 48°25' W 123°23'0 0.0
2016-Sep-24 22:32N 48°25' W 123°23'0 0.0
2016-Sep-24 21:32N 48°25' W 123°23'0 0.1
2016-Sep-24 19:33N 48°25' W 123°24'8 8.4
2016-Sep-24 18:33N 48°17' W 123°26'1615.3
2016-Sep-24 17:31N 48°13' W 123°49'1616.8
2016-Sep-24 16:33N 48°19' W 124°12'3316.6
2016-Sep-24 14:33N 48°28' W 125°00'3817.2
2016-Sep-24 12:22N 47°52' W 125°19'3117.1
2016-Sep-24 10:32N 47°21' W 125°18'1717.3
2016-Sep-24 09:34N 47°04' W 125°16'10417.3
2016-Sep-24 03:32N 45°20' W 125°08'1717.4
2016-Sep-24 02:32N 45°03' W 125°07'1817.6
2016-Sep-24 01:31N 44°45' W 125°06'1717.3
2016-Sep-24 00:32N 44°28' W 125°03'35417.7
2016-Sep-23 04:33N 38°39' W 123°46'1818.1
2016-Sep-23 03:34N 38°24' W 123°33'1817.9
2016-Sep-23 02:34N 38°09' W 123°20'1717.3
2016-Sep-23 01:33N 37°57' W 123°05'1717.5
2016-Sep-23 00:34N 37°48' W 122°46'1312.7
2016-Sep-22 23:33N 37°49' W 122°30'4 1.4
2016-Sep-22 20:32N 37°48' W 122°24'0 0.0
2016-Sep-22 12:32N 37°48' W 122°24'0 0.0
2016-Sep-22 04:33N 37°48' W 122°24'0 0.0
2016-Sep-22 03:32N 37°48' W 122°24'0 0.0
2016-Sep-22 00:31N 37°48' W 122°24'0 0.0
2016-Sep-21 23:33N 37°48' W 122°24'0 0.0
2016-Sep-21 22:33N 37°48' W 122°24'0 0.0
2016-Sep-21 19:32N 37°48' W 122°24'4 1.4
2016-Sep-21 16:33N 37°49' W 122°30'42718.6
2016-Sep-20 17:33N 44°39' W 125°07'6621.9
2016-Sep-20 14:34N 45°45' W 125°10'2222.0
2016-Sep-20 13:33N 46°07' W 125°12'6521.5
2016-Sep-20 10:31N 47°12' W 125°17'4621.5
2016-Sep-20 08:22N 47°59' W 125°20'1620.4
2016-Sep-20 07:33N 48°15' W 125°17'2120.7
2016-Sep-20 06:33N 48°32' W 124°59'7117.7
2016-Sep-20 02:33N 48°31' W 123°13'4414.7
2016-Sep-19 23:33N 49°11' W 123°40'10 2.0
2016-Sep-19 18:28N 49°10' W 123°55'0 0.0
2016-Sep-19 16:27N 49°10' W 123°55'  
Track history (hours):
 
Tides and Currents Weather Stations Pressure Air Temp Water Temp Dewpoint Dewpoint Depression Visibility Wind Speed Wind Dir Waves Ship Positions

Celebrity Infinity

Last reported at 2016-Sep-29 15:33 UTC. Time now 2016-Sep-29 18:49 UTC.
Position N 43°15' W 124°52'.

Length 294 m; draft 8.3 m.

Type: Ship. MMSI: 249048000.

Date/timePositionNaut miles runAvg speedWind from/ knotsBaromVisibWave heightAir tempDewpointWater temp
2016-Sep-29 15:33N 43°15' W 124°52'1616.0
2016-Sep-29 14:33N 43°30' W 124°49'1616.1
2016-Sep-29 13:33N 43°46' W 124°46'7915.9
2016-Sep-29 08:33N 45°05' W 124°30'1616.1
2016-Sep-29 07:33N 45°21' W 124°27'56 8.0
2016-Sep-29 00:32N 46°11' W 123°51'0 0.0
2016-Sep-28 21:33N 46°11' W 123°51'0 0.0
2016-Sep-28 19:33N 46°11' W 123°51'18 6.1
2016-Sep-28 16:33N 46°16' W 124°17'1716.6
2016-Sep-28 15:34N 46°29' W 124°31'5116.8
2016-Sep-28 12:33N 47°15' W 125°04'6616.6
2016-Sep-28 08:33N 48°21' W 125°09'7214.4
2016-Sep-28 03:34N 48°09' W 123°22'1717.2
2016-Sep-28 02:33N 48°12' W 122°56'1818.7
2016-Sep-28 01:33N 47°60' W 122°36'2512.3
2016-Sep-27 23:31N 47°37' W 122°21'0 0.0
2016-Sep-27 19:32N 47°37' W 122°21'0 0.0
2016-Sep-27 14:27N 47°37' W 122°21'0 0.0
2016-Sep-27 13:33N 47°37' W 122°21'16 5.5
2016-Sep-27 10:34N 47°52' W 122°29'49 4.9
2016-Sep-27 00:33N 48°25' W 123°23'0 0.0
2016-Sep-26 20:31N 48°25' W 123°23'0 0.0
2016-Sep-26 19:31N 48°25' W 123°23'0 0.0
2016-Sep-26 15:32N 48°25' W 123°23'4 2.1
2016-Sep-26 13:33N 48°23' W 123°18'15 7.5
2016-Sep-26 11:33N 48°38' W 123°15'18 5.9
2016-Sep-26 08:33N 48°55' W 123°10'30 5.1
2016-Sep-26 02:33N 49°18' W 123°40'8 8.3
2016-Sep-26 01:33N 49°18' W 123°27'9 9.0
2016-Sep-26 00:33N 49°19' W 123°13'5 1.6
2016-Sep-25 21:32N 49°17' W 123°07'0 0.0
2016-Sep-25 17:32N 49°17' W 123°07'0 0.0
2016-Sep-25 16:32N 49°17' W 123°07'0 0.0
2016-Sep-25 15:32N 49°17' W 123°07'0 0.0
2016-Sep-25 14:31N 49°17' W 123°07'7 3.7
2016-Sep-25 12:33N 49°17' W 123°18'1010.0
2016-Sep-25 11:33N 49°14' W 123°32'9 8.6
2016-Sep-25 10:33N 49°07' W 123°26'9 8.5
2016-Sep-25 09:33N 49°01' W 123°16'18 9.2
2016-Sep-25 07:33N 48°44' W 123°08'21 7.0
2016-Sep-25 04:32N 48°25' W 123°23'0 0.0
2016-Sep-25 00:33N 48°25' W 123°23'0 0.0
2016-Sep-24 22:32N 48°25' W 123°23'0 0.0
2016-Sep-24 21:32N 48°25' W 123°23'0 0.1
2016-Sep-24 19:33N 48°25' W 123°24'8 8.4
2016-Sep-24 18:33N 48°17' W 123°26'1615.3
2016-Sep-24 17:31N 48°13' W 123°49'1616.8
2016-Sep-24 16:33N 48°19' W 124°12'3316.6
2016-Sep-24 14:33N 48°28' W 125°00'3817.2
2016-Sep-24 12:22N 47°52' W 125°19'3117.1
2016-Sep-24 10:32N 47°21' W 125°18'1717.3
2016-Sep-24 09:34N 47°04' W 125°16'10417.3
2016-Sep-24 03:32N 45°20' W 125°08'1717.4
2016-Sep-24 02:32N 45°03' W 125°07'1817.6
2016-Sep-24 01:31N 44°45' W 125°06'1717.3
2016-Sep-24 00:32N 44°28' W 125°03'35417.7
2016-Sep-23 04:33N 38°39' W 123°46'1818.1
2016-Sep-23 03:34N 38°24' W 123°33'1817.9
2016-Sep-23 02:34N 38°09' W 123°20'1717.3
2016-Sep-23 01:33N 37°57' W 123°05'1717.5
2016-Sep-23 00:34N 37°48' W 122°46'1312.7
2016-Sep-22 23:33N 37°49' W 122°30'4 1.4
2016-Sep-22 20:32N 37°48' W 122°24'0 0.0
2016-Sep-22 12:32N 37°48' W 122°24'0 0.0
2016-Sep-22 04:33N 37°48' W 122°24'0 0.0
2016-Sep-22 03:32N 37°48' W 122°24'0 0.0
2016-Sep-22 00:31N 37°48' W 122°24'0 0.0
2016-Sep-21 23:33N 37°48' W 122°24'0 0.0
2016-Sep-21 22:33N 37°48' W 122°24'0 0.0
2016-Sep-21 19:32N 37°48' W 122°24'4 1.4
2016-Sep-21 16:33N 37°49' W 122°30'42718.6
2016-Sep-20 17:33N 44°39' W 125°07'6621.9
2016-Sep-20 14:34N 45°45' W 125°10'2222.0
2016-Sep-20 13:33N 46°07' W 125°12'6521.5
2016-Sep-20 10:31N 47°12' W 125°17'4621.5
2016-Sep-20 08:22N 47°59' W 125°20'1620.4
2016-Sep-20 07:33N 48°15' W 125°17'2120.7
2016-Sep-20 06:33N 48°32' W 124°59'7117.7
2016-Sep-20 02:33N 48°31' W 123°13'4414.7
2016-Sep-19 23:33N 49°11' W 123°40'10 2.0
2016-Sep-19 18:28N 49°10' W 123°55'0 0.0
2016-Sep-19 16:27N 49°10' W 123°55'  

Dump ship's entire track history